createdAt,value
2022-11-28T00:00:06.313Z,7.80
2022-11-28T00:02:32.797Z,7.74
2022-11-28T00:04:59.231Z,7.78
2022-11-28T00:07:25.704Z,7.76
2022-11-28T00:09:52.846Z,7.80
2022-11-28T00:12:19.174Z,7.84
2022-11-28T00:14:45.525Z,7.88
2022-11-28T00:17:11.846Z,7.86
2022-11-28T00:19:38.181Z,7.88
2022-11-28T00:22:04.570Z,7.84
2022-11-28T00:24:30.975Z,7.91
2022-11-28T00:26:57.295Z,7.92
2022-11-28T00:29:23.621Z,7.92
2022-11-28T00:31:50.061Z,7.87
2022-11-28T00:34:16.512Z,7.92
2022-11-28T00:36:45.413Z,7.97
2022-11-28T00:39:12.193Z,7.93
2022-11-28T00:41:38.583Z,7.95
2022-11-28T00:44:05.229Z,7.98
2022-11-28T00:46:31.639Z,7.96
2022-11-28T00:48:59.149Z,7.85
2022-11-28T00:51:28.463Z,7.84
2022-11-28T00:53:57.303Z,7.79
2022-11-28T00:56:26.852Z,7.66
2022-11-28T00:58:53.386Z,7.56
2022-11-28T01:01:29.544Z,7.60
2022-11-28T01:03:57.472Z,7.60
2022-11-28T01:06:28.123Z,7.65
2022-11-28T01:08:55.525Z,7.71
2022-11-28T01:11:22.151Z,7.66
2022-11-28T01:13:48.851Z,7.66
2022-11-28T01:16:15.862Z,7.55
2022-11-28T01:18:42.504Z,7.56
2022-11-28T01:21:09.496Z,7.53
2022-11-28T01:23:36.275Z,7.61
2022-11-28T01:26:04.348Z,7.65
2022-11-28T01:28:30.814Z,7.66
2022-11-28T01:30:57.257Z,7.60
2022-11-28T01:33:23.617Z,7.52
2022-11-28T01:35:58.097Z,7.55
2022-11-28T01:38:25.465Z,7.66
2022-11-28T01:40:52.832Z,7.66
2022-11-28T01:43:21.289Z,7.60
2022-11-28T01:45:47.962Z,7.60
2022-11-28T01:48:18.131Z,7.64
2022-11-28T01:50:47.739Z,7.62
2022-11-28T01:53:14.563Z,7.49
2022-11-28T01:55:52.373Z,7.44
2022-11-28T01:58:18.861Z,7.50
2022-11-28T02:00:46.524Z,7.56
2022-11-28T02:03:20.329Z,7.65
2022-11-28T02:05:49.985Z,7.70
2022-11-28T02:08:16.346Z,7.68
2022-11-28T02:11:18.412Z,7.67
2022-11-28T02:14:05.464Z,7.62
2022-11-28T02:16:43.168Z,7.61
2022-11-28T02:19:47.101Z,7.62
2022-11-28T02:22:38.699Z,7.54
2022-11-28T02:25:47.430Z,7.61
2022-11-28T02:28:30.790Z,7.65
2022-11-28T02:31:33.481Z,7.66
2022-11-28T02:34:08.386Z,7.72
2022-11-28T02:36:46.090Z,7.75
2022-11-28T02:39:31.769Z,7.71
2022-11-28T02:42:24.533Z,7.70
2022-11-28T02:45:13.792Z,7.80
2022-11-28T02:47:53.836Z,7.79
2022-11-28T02:50:32.330Z,7.72
2022-11-28T02:53:14.493Z,7.66
2022-11-28T02:55:42.872Z,7.66
2022-11-28T02:58:10.713Z,7.72
2022-11-28T03:00:39.783Z,7.70
2022-11-28T03:03:21.390Z,7.72
2022-11-28T03:06:18.742Z,7.72
2022-11-28T03:08:59.062Z,7.74
2022-11-28T03:11:47.486Z,7.74
2022-11-28T03:14:24.146Z,7.69
2022-11-28T03:17:19.704Z,7.68
2022-11-28T03:20:16.817Z,7.71
2022-11-28T03:23:04.603Z,7.68
2022-11-28T03:25:47.521Z,7.68
2022-11-28T03:28:26.085Z,7.69
2022-11-28T03:31:01.880Z,7.61
2022-11-28T03:33:33.265Z,7.60
2022-11-28T03:36:12.517Z,7.58
2022-11-28T03:38:42.849Z,7.60
2022-11-28T03:41:18.930Z,7.56
2022-11-28T03:43:52.139Z,7.54
2022-11-28T03:46:23.382Z,7.49
2022-11-28T03:48:54.490Z,7.57
2022-11-28T03:51:28.955Z,7.56
2022-11-28T03:54:10.683Z,7.57
2022-11-28T03:56:37.357Z,7.43
2022-11-28T03:59:16.905Z,7.45
2022-11-28T04:02:11.890Z,7.38
2022-11-28T04:04:53.313Z,7.47
2022-11-28T04:07:28.763Z,7.33
2022-11-28T04:10:13.817Z,7.32
2022-11-28T04:13:15.524Z,7.35
2022-11-28T04:15:59.211Z,7.34
2022-11-28T04:18:47.865Z,7.23
2022-11-28T04:21:29.425Z,7.28
2022-11-28T04:24:01.257Z,7.34
2022-11-28T04:26:33.086Z,7.27
2022-11-28T04:29:02.427Z,7.27
2022-11-28T04:31:31.098Z,7.33
2022-11-28T04:34:02.342Z,7.39
2022-11-28T04:36:30.289Z,7.37
2022-11-28T04:38:59.537Z,7.31
2022-11-28T04:41:40.417Z,7.36
2022-11-28T04:44:18.122Z,7.29
2022-11-28T04:46:55.497Z,7.30
2022-11-28T04:49:23.537Z,7.34
2022-11-28T04:52:17.773Z,7.26
2022-11-28T04:55:03.870Z,7.34
2022-11-28T04:57:35.356Z,7.33
2022-11-28T05:00:04.525Z,7.31
2022-11-28T05:02:32.272Z,7.35
2022-11-28T05:04:59.587Z,7.27
2022-11-28T05:07:26.029Z,7.33
2022-11-28T05:09:52.460Z,7.22
2022-11-28T05:12:18.798Z,7.27
2022-11-28T05:14:45.144Z,7.26
2022-11-28T05:17:13.105Z,7.31
2022-11-28T05:19:39.609Z,7.32
2022-11-28T05:22:06.405Z,7.13
2022-11-28T05:24:32.737Z,7.22
2022-11-28T05:26:59.247Z,7.09
2022-11-28T05:29:25.819Z,7.07
2022-11-28T05:31:52.244Z,7.13
2022-11-28T05:34:18.631Z,7.24
2022-11-28T05:36:45.077Z,7.22
2022-11-28T05:39:11.409Z,7.25
2022-11-28T05:41:37.740Z,7.33
2022-11-28T05:44:04.124Z,7.35
2022-11-28T05:46:30.504Z,7.35
2022-11-28T05:48:56.898Z,7.39
2022-11-28T05:51:23.231Z,7.37
2022-11-28T05:53:49.663Z,7.30
2022-11-28T05:56:19.167Z,7.39
2022-11-28T05:58:45.992Z,7.39
2022-11-28T06:01:18.573Z,7.20
2022-11-28T06:03:45.609Z,7.19
2022-11-28T06:06:17.512Z,6.92
2022-11-28T06:08:44.671Z,6.75
2022-11-28T06:11:12.059Z,6.73
2022-11-28T06:13:38.561Z,6.57
2022-11-28T06:16:10.151Z,6.65
2022-11-28T06:18:37.046Z,6.72
2022-11-28T06:21:04.857Z,6.84
2022-11-28T06:23:32.872Z,7.00
2022-11-28T06:26:07.897Z,7.02
2022-11-28T06:28:34.930Z,7.08
2022-11-28T06:31:02.132Z,7.16
2022-11-28T06:33:28.917Z,7.13
2022-11-28T06:36:02.302Z,7.08
2022-11-28T06:38:29.037Z,7.12
2022-11-28T06:41:02.482Z,7.09
2022-11-28T06:43:29.612Z,7.16
2022-11-28T06:45:56.672Z,7.10
2022-11-28T06:48:23.970Z,7.16
2022-11-28T06:50:51.159Z,7.19
2022-11-28T06:53:18.257Z,7.24
2022-11-28T06:55:45.645Z,7.21
2022-11-28T06:58:12.088Z,7.12
2022-11-28T07:00:39.142Z,6.81
2022-11-28T07:03:05.477Z,6.79
2022-11-28T07:05:31.968Z,6.81
2022-11-28T07:07:58.567Z,6.83
2022-11-28T07:10:25.437Z,6.70
2022-11-28T07:13:04.906Z,6.55
2022-11-28T07:15:32.000Z,6.68
2022-11-28T07:17:58.334Z,6.68
2022-11-28T07:20:24.687Z,6.85
2022-11-28T07:22:51.073Z,6.93
2022-11-28T07:25:17.824Z,6.90
2022-11-28T07:27:44.242Z,6.97
2022-11-28T07:30:11.098Z,7.09
2022-11-28T07:32:41.146Z,7.07
2022-11-28T07:35:08.774Z,7.11
2022-11-28T07:37:35.608Z,7.13
2022-11-28T07:40:02.205Z,7.12
2022-11-28T07:42:28.545Z,7.20
2022-11-28T07:44:54.905Z,7.21
2022-11-28T07:47:22.101Z,7.16
2022-11-28T07:49:48.440Z,7.24
2022-11-28T07:52:15.225Z,7.21
2022-11-28T07:54:41.704Z,7.26
2022-11-28T07:57:12.523Z,7.30
2022-11-28T07:59:39.690Z,7.26
2022-11-28T08:02:07.358Z,7.23
2022-11-28T08:04:33.799Z,6.72
2022-11-28T08:07:00.187Z,6.14
2022-11-28T08:09:26.754Z,6.17
2022-11-28T08:11:53.097Z,6.45
2022-11-28T08:14:20.403Z,6.67
2022-11-28T08:16:46.820Z,6.81
2022-11-28T08:19:13.520Z,6.97
2022-11-28T08:21:40.033Z,7.11
2022-11-28T08:24:07.959Z,7.20
2022-11-28T08:26:34.894Z,7.29
2022-11-28T08:29:02.197Z,7.35
2022-11-28T08:31:34.277Z,7.31
2022-11-28T08:34:02.722Z,7.40
2022-11-28T08:36:29.603Z,7.44
2022-11-28T08:39:22.256Z,7.44
2022-11-28T08:41:42.716Z,7.50
2022-11-28T08:44:09.090Z,7.47
2022-11-28T08:46:36.214Z,7.45
2022-11-28T08:49:04.595Z,7.45
2022-11-28T08:51:31.653Z,7.52
2022-11-28T08:53:59.753Z,7.61
2022-11-28T08:56:27.075Z,7.67
2022-11-28T08:58:53.790Z,7.68
2022-11-28T09:01:22.649Z,7.62
2022-11-28T09:03:49.629Z,7.69
2022-11-28T09:06:17.150Z,7.60
2022-11-28T09:08:43.956Z,7.60
2022-11-28T09:11:12.548Z,7.44
2022-11-28T09:13:39.392Z,7.36
2022-11-28T09:16:06.062Z,7.35
2022-11-28T09:18:32.474Z,7.44
2022-11-28T09:21:11.434Z,7.32
2022-11-28T09:23:40.778Z,7.32
2022-11-28T09:26:12.150Z,7.38
2022-11-28T09:28:38.714Z,7.31
2022-11-28T09:31:06.191Z,7.26
2022-11-28T09:33:33.112Z,7.34
2022-11-28T09:36:04.575Z,7.48
2022-11-28T09:38:30.876Z,7.37
2022-11-28T09:40:57.265Z,7.42
2022-11-28T09:43:31.568Z,7.58
2022-11-28T09:46:00.276Z,7.48
2022-11-28T09:48:32.661Z,7.70
2022-11-28T09:51:19.245Z,7.78
2022-11-28T09:54:14.250Z,7.86
2022-11-28T09:56:41.105Z,7.90
2022-11-28T09:59:22.805Z,7.99
2022-11-28T10:02:16.383Z,8.08
2022-11-28T10:05:33.886Z,8.17
2022-11-28T10:08:18.685Z,8.19
2022-11-28T10:11:16.931Z,8.19
2022-11-28T10:14:11.110Z,8.22
2022-11-28T10:16:40.361Z,8.27
2022-11-28T10:19:31.715Z,8.35
2022-11-28T10:22:02.811Z,8.48
2022-11-28T10:24:47.237Z,8.57
2022-11-28T10:27:15.743Z,8.59
2022-11-28T10:29:57.460Z,8.62
2022-11-28T10:32:37.742Z,8.62
2022-11-28T10:35:26.753Z,8.65
2022-11-28T10:37:54.657Z,8.69
2022-11-28T10:40:44.158Z,8.80
2022-11-28T10:43:25.112Z,8.77
2022-11-28T10:46:06.688Z,8.91
2022-11-28T10:48:59.188Z,8.92
2022-11-28T10:51:40.790Z,8.99
2022-11-28T10:54:38.710Z,8.97
2022-11-28T10:57:20.294Z,8.98
2022-11-28T10:59:55.942Z,9.09
2022-11-28T11:02:33.830Z,9.10
2022-11-28T11:05:00.519Z,9.11
2022-11-28T11:10:12.144Z,8.93
2022-11-28T11:12:38.950Z,9.00
2022-11-28T11:15:36.091Z,9.03
2022-11-28T11:18:36.077Z,9.18
2022-11-28T11:21:21.861Z,9.23
2022-11-28T11:23:49.785Z,9.24
2022-11-28T11:26:27.445Z,9.34
2022-11-28T11:28:54.833Z,9.23
2022-11-28T11:31:27.762Z,9.23
2022-11-28T11:34:03.290Z,9.26
2022-11-28T11:36:32.653Z,9.14
2022-11-28T11:39:07.197Z,9.15
2022-11-28T11:41:34.439Z,9.09
2022-11-28T11:44:20.305Z,9.06
2022-11-28T11:46:54.463Z,9.25
2022-11-28T11:49:33.504Z,9.26
2022-11-28T11:52:04.258Z,9.27
2022-11-28T11:54:31.081Z,9.39
2022-11-28T11:57:24.903Z,9.43
2022-11-28T11:59:51.356Z,9.39
2022-11-28T12:02:55.588Z,9.47
2022-11-28T12:05:52.352Z,9.38
2022-11-28T12:08:38.004Z,9.36
2022-11-28T12:11:21.808Z,9.46
2022-11-28T12:13:49.622Z,9.52
2022-11-28T12:16:41.476Z,9.59
2022-11-28T12:19:26.315Z,9.61
2022-11-28T12:22:25.251Z,9.62
2022-11-28T12:25:08.661Z,9.59
2022-11-28T12:27:46.767Z,9.56
2022-11-28T12:30:25.329Z,9.60
2022-11-28T12:33:24.241Z,9.63
2022-11-28T12:36:19.098Z,9.65
2022-11-28T12:38:48.387Z,9.73
2022-11-28T12:41:33.046Z,9.71
2022-11-28T12:44:31.543Z,9.70
2022-11-28T12:47:18.457Z,9.77
2022-11-28T12:50:21.277Z,9.73
2022-11-28T12:53:00.267Z,9.79
2022-11-28T12:55:36.879Z,9.77
2022-11-28T12:58:24.256Z,9.81
2022-11-28T13:01:14.301Z,9.85
2022-11-28T13:03:55.894Z,9.92
2022-11-28T13:06:51.375Z,10.00
2022-11-28T13:09:28.756Z,9.95
2022-11-28T13:12:05.963Z,10.00
2022-11-28T13:14:56.371Z,9.99
2022-11-28T13:17:50.383Z,9.94
2022-11-28T13:20:45.406Z,9.93
2022-11-28T13:23:28.486Z,9.93
2022-11-28T13:26:18.137Z,9.99
2022-11-28T13:29:27.070Z,10.07
2022-11-28T13:32:02.716Z,10.07
2022-11-28T13:34:30.976Z,10.10
2022-11-28T13:40:07.675Z,10.15
2022-11-28T13:43:07.994Z,10.16
2022-11-28T13:45:40.343Z,10.15
2022-11-28T13:49:13.075Z,10.11
2022-11-28T13:51:30.541Z,10.17
2022-11-28T13:54:22.997Z,10.19
2022-11-28T13:57:27.051Z,10.00
2022-11-28T14:00:06.149Z,10.13
2022-11-28T14:02:52.472Z,10.17
2022-11-28T14:05:32.994Z,10.17
2022-11-28T14:08:00.837Z,10.24
2022-11-28T14:10:37.123Z,10.32
2022-11-28T14:13:28.059Z,10.36
2022-11-28T14:16:20.215Z,10.39
2022-11-28T14:18:57.618Z,10.36
2022-11-28T14:21:31.285Z,10.12
2022-11-28T14:24:12.406Z,10.23
2022-11-28T14:26:42.901Z,10.23
2022-11-28T14:29:23.531Z,10.26
2022-11-28T14:32:21.915Z,10.03
2022-11-28T14:34:43.797Z,10.18
2022-11-28T14:37:19.403Z,10.31
2022-11-28T14:39:49.769Z,10.38
2022-11-28T14:42:36.739Z,10.41
2022-11-28T14:45:42.754Z,10.32
2022-11-28T14:48:17.505Z,10.33
2022-11-28T14:50:48.987Z,10.20
2022-11-28T14:53:33.595Z,10.29
2022-11-28T14:56:15.691Z,10.40
2022-11-28T14:58:55.082Z,10.48
2022-11-28T15:01:38.330Z,10.54
2022-11-28T15:04:07.521Z,10.56
2022-11-28T15:06:38.445Z,10.53
2022-11-28T15:09:16.056Z,10.52
2022-11-28T15:12:08.159Z,10.58
2022-11-28T15:14:35.605Z,10.34
2022-11-28T15:17:05.373Z,10.45
2022-11-28T15:19:38.948Z,10.40
2022-11-28T15:22:05.838Z,10.26
2022-11-28T15:24:38.304Z,10.31
2022-11-28T15:27:07.662Z,10.37
2022-11-28T15:29:36.149Z,10.13
2022-11-28T15:32:03.344Z,10.34
2022-11-28T15:34:35.210Z,10.43
2022-11-28T15:37:05.189Z,10.47
2022-11-28T15:39:39.763Z,10.53
2022-11-28T15:42:15.826Z,10.52
2022-11-28T15:44:43.135Z,10.55
2022-11-28T15:47:21.391Z,10.61
2022-11-28T15:50:22.265Z,10.54
2022-11-28T15:53:04.201Z,10.45
2022-11-28T15:55:32.835Z,10.48
2022-11-28T15:58:20.925Z,10.49
2022-11-28T16:01:10.694Z,10.15
2022-11-28T16:03:54.097Z,10.14
2022-11-28T16:06:23.099Z,10.15
2022-11-28T16:08:58.165Z,9.57
2022-11-28T16:11:27.681Z,9.44
2022-11-28T16:13:57.499Z,9.16
2022-11-28T16:16:33.364Z,9.15
2022-11-28T16:19:08.177Z,9.00
2022-11-28T16:21:50.724Z,8.90
2022-11-28T16:24:25.272Z,8.91
2022-11-28T16:27:04.568Z,8.94
2022-11-28T16:29:36.173Z,8.94
2022-11-28T16:32:21.613Z,8.92
2022-11-28T16:34:53.652Z,8.94
2022-11-28T16:37:26.692Z,8.99
2022-11-28T16:40:21.643Z,9.15
2022-11-28T16:42:55.272Z,9.23
2022-11-28T16:45:24.589Z,9.18
2022-11-28T16:48:08.771Z,9.22
2022-11-28T16:50:37.132Z,9.37
2022-11-28T16:53:05.102Z,9.52
2022-11-28T16:55:34.725Z,9.62
2022-11-28T16:58:15.099Z,9.47
2022-11-28T17:00:51.742Z,9.48
2022-11-28T17:03:50.134Z,9.67
2022-11-28T17:06:23.088Z,9.59
2022-11-28T17:08:50.421Z,9.82
2022-11-28T17:11:19.998Z,9.95
2022-11-28T17:13:46.674Z,9.93
2022-11-28T17:16:19.941Z,10.10
2022-11-28T17:18:47.337Z,10.32
2022-11-28T17:21:16.585Z,10.48
2022-11-28T17:23:43.235Z,10.58
2022-11-28T17:26:11.098Z,10.67
2022-11-28T17:28:38.290Z,10.72
2022-11-28T17:31:05.149Z,10.76
2022-11-28T17:33:31.791Z,10.82
2022-11-28T17:36:03.881Z,10.86
2022-11-28T17:38:32.958Z,10.89
2022-11-28T17:41:01.935Z,10.91
2022-11-28T17:43:28.705Z,10.83
2022-11-28T17:45:55.195Z,10.71
2022-11-28T17:48:21.594Z,10.54
2022-11-28T17:50:49.786Z,10.19
2022-11-28T17:53:18.990Z,10.16
2022-11-28T17:55:47.178Z,10.16
2022-11-28T17:58:17.200Z,10.17
2022-11-28T18:00:44.091Z,9.91
2022-11-28T18:03:14.381Z,9.84
2022-11-28T18:05:43.695Z,9.79
2022-11-28T18:08:10.463Z,9.83
2022-11-28T18:10:37.084Z,9.61
2022-11-28T18:13:04.472Z,9.82
2022-11-28T18:15:32.547Z,10.12
2022-11-28T18:17:59.354Z,10.23
2022-11-28T18:20:28.748Z,10.43
2022-11-28T18:22:56.488Z,10.62
2022-11-28T18:25:24.022Z,10.71
2022-11-28T18:27:50.582Z,10.81
2022-11-28T18:30:17.474Z,10.82
2022-11-28T18:32:44.120Z,10.78
2022-11-28T18:35:11.571Z,10.83
2022-11-28T18:37:38.906Z,10.31
2022-11-28T18:40:09.113Z,10.31
2022-11-28T18:42:36.162Z,9.95
2022-11-28T18:45:02.667Z,9.87
2022-11-28T18:47:34.833Z,9.71
2022-11-28T18:50:01.373Z,9.86
2022-11-28T18:52:27.950Z,9.73
2022-11-28T18:54:54.310Z,9.71
2022-11-28T18:57:20.987Z,9.72
2022-11-28T18:59:54.343Z,9.82
2022-11-28T19:02:23.770Z,9.99
2022-11-28T19:04:50.203Z,9.79
2022-11-28T19:07:16.662Z,9.61
2022-11-28T19:09:44.951Z,9.73
2022-11-28T19:12:11.841Z,9.32
2022-11-28T19:14:38.396Z,9.56
2022-11-28T19:17:05.459Z,9.91
2022-11-28T19:19:33.779Z,9.84
2022-11-28T19:22:00.129Z,9.74
2022-11-28T19:24:26.759Z,9.51
2022-11-28T19:26:53.198Z,9.59
2022-11-28T19:29:19.629Z,9.73
2022-11-28T19:31:48.517Z,9.69
2022-11-28T19:34:17.430Z,9.55
2022-11-28T19:36:49.982Z,9.42
2022-11-28T19:39:24.124Z,9.48
2022-11-28T19:41:52.987Z,9.58
2022-11-28T19:44:21.091Z,9.44
2022-11-28T19:46:47.931Z,9.55
2022-11-28T19:49:21.017Z,9.63
2022-11-28T19:51:48.231Z,9.87
2022-11-28T19:54:15.782Z,9.80
2022-11-28T19:56:42.364Z,9.95
2022-11-28T19:59:10.476Z,9.84
2022-11-28T20:01:38.645Z,9.88
2022-11-28T20:04:05.192Z,9.72
2022-11-28T20:08:10.522Z,9.59
2022-11-28T20:10:38.737Z,9.58
2022-11-28T20:13:06.372Z,9.49
2022-11-28T20:15:36.862Z,9.65
2022-11-28T20:18:03.542Z,9.62
2022-11-28T20:20:30.069Z,9.91
2022-11-28T20:22:57.671Z,10.13
2022-11-28T20:25:24.063Z,10.10
2022-11-28T20:27:50.407Z,9.89
2022-11-28T20:30:17.392Z,9.78
2022-11-28T20:32:43.919Z,9.90
2022-11-28T20:35:10.376Z,9.70
2022-11-28T20:37:39.044Z,9.37
2022-11-28T20:40:07.699Z,9.28
2022-11-28T20:42:39.587Z,9.21
2022-11-28T20:45:07.165Z,9.32
2022-11-28T20:47:37.514Z,9.33
2022-11-28T20:50:07.085Z,9.44
2022-11-28T20:52:33.718Z,9.33
2022-11-28T20:55:00.277Z,9.38
2022-11-28T20:57:27.037Z,9.41
2022-11-28T20:59:57.375Z,9.56
2022-11-28T21:02:23.883Z,9.57
2022-11-28T21:04:50.333Z,9.41
2022-11-28T21:07:17.006Z,9.32
2022-11-28T21:09:43.866Z,9.28
2022-11-28T21:12:10.504Z,9.18
2022-11-28T21:14:36.929Z,9.16
2022-11-28T21:17:03.511Z,9.06
2022-11-28T21:19:29.859Z,8.99
2022-11-28T21:21:56.390Z,8.83
2022-11-28T21:24:22.811Z,8.88
2022-11-28T21:26:53.548Z,8.93
2022-11-28T21:29:22.390Z,8.77
2022-11-28T21:31:48.804Z,8.76
2022-11-28T21:34:16.859Z,8.78
2022-11-28T21:36:43.755Z,8.88
2022-11-28T21:39:14.000Z,8.94
2022-11-28T21:41:40.676Z,9.05
2022-11-28T21:44:07.180Z,8.90
2022-11-28T21:46:33.756Z,9.06
2022-11-28T21:49:00.346Z,8.99
2022-11-28T21:51:28.764Z,9.02
2022-11-28T21:53:57.202Z,9.16
2022-11-28T21:56:23.926Z,9.29
2022-11-28T21:58:50.312Z,9.26
2022-11-28T22:01:16.916Z,9.06
2022-11-28T22:03:43.738Z,8.97
2022-11-28T22:06:16.840Z,9.00
2022-11-28T22:08:43.960Z,8.83
2022-11-28T22:11:13.063Z,8.82
2022-11-28T22:13:42.052Z,8.83
2022-11-28T22:16:20.658Z,8.90
2022-11-28T22:18:48.609Z,8.84
2022-11-28T22:24:02.701Z,8.79
2022-11-28T22:26:29.092Z,8.78
2022-11-28T22:28:55.572Z,8.77
2022-11-28T22:31:22.520Z,8.82
2022-11-28T22:33:50.241Z,9.08
2022-11-28T22:36:19.102Z,9.20
2022-11-28T22:38:47.484Z,9.00
2022-11-28T22:41:24.780Z,9.18
2022-11-28T22:43:56.533Z,9.12
2022-11-28T22:46:22.970Z,9.23
2022-11-28T22:48:50.441Z,9.15
2022-11-28T22:51:20.969Z,9.15
2022-11-28T22:53:47.481Z,9.19
2022-11-28T22:56:15.525Z,9.29
2022-11-28T22:58:43.878Z,9.47
2022-11-28T23:01:22.106Z,9.41
2022-11-28T23:03:48.738Z,9.44
2022-11-28T23:06:18.662Z,9.24
2022-11-28T23:08:45.334Z,8.96
2022-11-28T23:11:17.533Z,8.94
2022-11-28T23:13:44.803Z,8.93
2022-11-28T23:16:20.182Z,8.91
2022-11-28T23:18:49.202Z,8.68
2022-11-28T23:21:17.726Z,8.72
2022-11-28T23:23:45.650Z,8.96
2022-11-28T23:26:14.459Z,8.99
2022-11-28T23:28:41.627Z,8.93
2022-11-28T23:31:11.521Z,9.12
2022-11-28T23:33:38.340Z,8.84
2022-11-28T23:36:37.008Z,8.80
2022-11-28T23:39:21.719Z,8.95
2022-11-28T23:41:49.001Z,9.10
2022-11-28T23:44:17.269Z,9.06
2022-11-28T23:46:44.232Z,9.20
2022-11-28T23:49:11.556Z,9.37
2022-11-28T23:51:40.170Z,9.38
2022-11-28T23:54:07.985Z,9.32
2022-11-28T23:56:36.182Z,9.30
2022-11-28T23:59:04.640Z,9.21
